createdAt,value
2022-07-29T00:01:41.860Z,68.54
2022-07-29T00:04:10.516Z,68.62
2022-07-29T00:06:38.914Z,68.50
2022-07-29T00:09:07.962Z,68.33
2022-07-29T00:11:36.097Z,68.24
2022-07-29T00:14:05.725Z,67.95
2022-07-29T00:16:34.010Z,67.45
2022-07-29T00:19:02.629Z,67.22
2022-07-29T00:21:30.961Z,67.26
2022-07-29T00:23:59.312Z,67.45
2022-07-29T00:26:28.986Z,67.23
2022-07-29T00:29:30.837Z,67.06
2022-07-29T00:31:45.688Z,67.14
2022-07-29T00:34:32.770Z,66.96
2022-07-29T00:37:00.871Z,66.70
2022-07-29T00:39:29.053Z,66.62
2022-07-29T00:41:57.275Z,66.42
2022-07-29T00:44:25.463Z,66.73
2022-07-29T00:46:53.618Z,66.54
2022-07-29T00:49:21.884Z,67.09
2022-07-29T00:51:50.927Z,67.22
2022-07-29T00:54:19.426Z,67.77
2022-07-29T00:56:47.934Z,68.07
2022-07-29T00:59:16.147Z,68.56
2022-07-29T01:01:44.383Z,68.67
2022-07-29T01:04:12.833Z,68.83
2022-07-29T01:06:44.000Z,68.73
2022-07-29T01:09:13.042Z,68.79
2022-07-29T01:11:41.834Z,69.17
2022-07-29T01:14:11.318Z,69.58
2022-07-29T01:16:47.242Z,69.79
2022-07-29T01:19:47.334Z,70.23
2022-07-29T01:22:49.363Z,70.38
2022-07-29T01:25:29.534Z,69.95
2022-07-29T01:28:28.671Z,69.85
2022-07-29T01:30:58.285Z,70.48
2022-07-29T01:33:47.215Z,70.39
2022-07-29T01:36:31.147Z,70.25
2022-07-29T01:39:07.955Z,70.65
2022-07-29T01:41:38.574Z,70.93
2022-07-29T01:44:24.317Z,70.97
2022-07-29T01:46:59.201Z,71.48
2022-07-29T01:49:30.977Z,71.58
2022-07-29T01:52:04.732Z,71.51
2022-07-29T01:54:43.954Z,71.56
2022-07-29T01:57:18.732Z,71.77
2022-07-29T01:59:48.680Z,72.10
2022-07-29T02:02:19.391Z,72.36
2022-07-29T02:04:49.802Z,72.26
2022-07-29T02:07:22.478Z,72.49
2022-07-29T02:09:52.705Z,72.33
2022-07-29T02:12:23.037Z,72.49
2022-07-29T02:14:54.051Z,72.49
2022-07-29T02:17:54.071Z,72.53
2022-07-29T02:20:26.331Z,72.53
2022-07-29T02:22:56.667Z,72.45
2022-07-29T02:25:37.309Z,72.38
2022-07-29T02:28:08.703Z,72.10
2022-07-29T02:30:41.664Z,72.24
2022-07-29T02:33:13.400Z,72.08
2022-07-29T02:35:44.381Z,71.66
2022-07-29T02:38:35.456Z,71.50
2022-07-29T02:41:12.365Z,71.68
2022-07-29T02:43:42.756Z,71.72
2022-07-29T02:46:28.737Z,71.51
2022-07-29T02:49:05.367Z,71.73
2022-07-29T02:51:45.194Z,71.74
2022-07-29T02:54:39.356Z,71.76
2022-07-29T02:57:54.943Z,71.93
2022-07-29T03:00:30.148Z,72.27
2022-07-29T03:03:01.754Z,72.13
2022-07-29T03:05:30.796Z,72.12
2022-07-29T03:08:03.309Z,72.36
2022-07-29T03:10:32.275Z,72.64
2022-07-29T03:13:02.297Z,73.12
2022-07-29T03:15:30.952Z,73.07
2022-07-29T03:17:59.987Z,72.82
2022-07-29T03:20:28.175Z,73.02
2022-07-29T03:22:56.435Z,73.10
2022-07-29T03:25:24.590Z,73.04
2022-07-29T03:27:52.720Z,72.75
2022-07-29T03:30:22.332Z,72.35
2022-07-29T03:32:52.541Z,72.41
2022-07-29T03:35:21.452Z,72.63
2022-07-29T03:37:50.319Z,72.84
2022-07-29T03:40:24.062Z,72.61
2022-07-29T03:42:55.924Z,72.08
2022-07-29T03:45:25.558Z,72.27
2022-07-29T03:48:00.714Z,71.81
2022-07-29T03:50:32.250Z,71.67
2022-07-29T03:53:01.922Z,71.59
2022-07-29T03:55:34.850Z,71.51
2022-07-29T03:58:04.252Z,71.52
2022-07-29T04:00:34.555Z,70.90
2022-07-29T04:03:04.892Z,69.92
2022-07-29T04:05:39.438Z,69.65
2022-07-29T04:08:07.714Z,69.01
2022-07-29T04:10:36.549Z,69.02
2022-07-29T04:13:04.859Z,69.72
2022-07-29T04:15:33.143Z,70.53
2022-07-29T04:18:01.294Z,70.63
2022-07-29T04:20:29.567Z,70.29
2022-07-29T04:22:57.637Z,70.12
2022-07-29T04:25:25.815Z,70.01
2022-07-29T04:28:03.263Z,69.51
2022-07-29T04:30:33.849Z,69.50
2022-07-29T04:33:04.030Z,69.68
2022-07-29T04:35:38.124Z,69.39
2022-07-29T04:38:07.938Z,69.59
2022-07-29T04:40:44.223Z,69.93
2022-07-29T04:43:12.613Z,70.02
2022-07-29T04:45:42.846Z,70.27
2022-07-29T04:48:11.166Z,70.07
2022-07-29T04:50:40.734Z,69.09
2022-07-29T04:53:08.971Z,69.00
2022-07-29T04:55:38.832Z,68.17
2022-07-29T04:58:08.574Z,67.59
2022-07-29T05:00:36.922Z,66.43
2022-07-29T05:03:05.582Z,65.69
2022-07-29T05:05:33.963Z,65.59
2022-07-29T05:08:02.295Z,65.50
2022-07-29T05:10:30.519Z,65.04
2022-07-29T05:12:58.649Z,64.99
2022-07-29T05:15:26.870Z,64.90
2022-07-29T05:17:55.202Z,64.41
2022-07-29T05:20:27.528Z,64.45
2022-07-29T05:22:58.751Z,63.76
2022-07-29T05:25:43.054Z,63.10
2022-07-29T05:28:13.201Z,63.26
2022-07-29T05:30:41.529Z,62.56
2022-07-29T05:33:35.004Z,61.81
2022-07-29T05:36:00.658Z,60.92
2022-07-29T05:38:29.881Z,59.58
2022-07-29T05:40:59.795Z,58.52
2022-07-29T05:43:29.519Z,57.13
2022-07-29T05:45:58.201Z,57.19
2022-07-29T05:48:26.979Z,55.83
2022-07-29T05:50:55.772Z,56.06
2022-07-29T05:53:24.266Z,55.75
2022-07-29T05:55:53.171Z,55.14
2022-07-29T05:58:21.575Z,54.75
2022-07-29T06:00:49.873Z,54.64
2022-07-29T06:03:17.995Z,53.44
2022-07-29T06:05:46.098Z,52.52
2022-07-29T06:08:14.231Z,52.59
2022-07-29T06:10:42.509Z,52.02
2022-07-29T06:13:10.818Z,52.13
2022-07-29T06:15:39.291Z,51.28
2022-07-29T06:18:10.279Z,51.55
2022-07-29T06:20:39.315Z,51.38
2022-07-29T06:23:07.691Z,49.47
2022-07-29T06:25:37.870Z,49.90
2022-07-29T06:28:06.155Z,49.57
2022-07-29T06:30:34.483Z,48.28
2022-07-29T06:33:03.964Z,47.98
2022-07-29T06:35:39.511Z,46.41
2022-07-29T06:38:29.856Z,45.80
2022-07-29T06:41:11.222Z,44.99
2022-07-29T06:43:52.265Z,45.89
2022-07-29T06:46:24.028Z,44.13
2022-07-29T06:48:53.527Z,43.78
2022-07-29T06:51:23.693Z,43.60
2022-07-29T06:53:59.475Z,42.78
2022-07-29T06:56:39.572Z,42.24
2022-07-29T06:59:10.487Z,42.55
2022-07-29T07:01:40.912Z,42.66
2022-07-29T07:04:10.429Z,42.60
2022-07-29T07:06:39.304Z,42.88
2022-07-29T07:09:07.670Z,42.55
2022-07-29T07:11:35.978Z,42.30
2022-07-29T07:14:04.543Z,42.07
2022-07-29T07:16:33.286Z,42.63
2022-07-29T07:19:02.000Z,42.72
2022-07-29T07:21:31.250Z,42.42
2022-07-29T07:24:01.060Z,41.90
2022-07-29T07:26:29.583Z,41.84
2022-07-29T07:28:58.114Z,42.14
2022-07-29T07:31:26.522Z,41.91
2022-07-29T07:33:54.804Z,41.90
2022-07-29T07:36:24.342Z,41.38
2022-07-29T07:38:52.472Z,41.23
2022-07-29T07:41:20.809Z,41.22
2022-07-29T07:43:49.013Z,41.34
2022-07-29T07:46:17.380Z,41.10
2022-07-29T07:48:45.664Z,40.87
2022-07-29T07:51:13.980Z,40.78
2022-07-29T07:53:42.320Z,40.79
2022-07-29T07:56:12.098Z,40.72
2022-07-29T07:58:40.992Z,40.69
2022-07-29T08:01:10.249Z,40.62
2022-07-29T08:03:38.528Z,39.84
2022-07-29T08:06:07.226Z,39.31
2022-07-29T08:08:35.573Z,39.04
2022-07-29T08:11:09.046Z,38.52
2022-07-29T08:13:38.783Z,38.08
2022-07-29T08:16:16.065Z,38.29
2022-07-29T08:18:46.196Z,37.82
2022-07-29T08:21:16.438Z,37.41
2022-07-29T08:23:57.609Z,36.77
2022-07-29T08:26:26.167Z,35.97
2022-07-29T08:28:54.319Z,35.56
2022-07-29T08:31:22.518Z,34.34
2022-07-29T08:33:50.667Z,33.50
2022-07-29T08:36:18.927Z,32.59
2022-07-29T08:38:47.405Z,31.89
2022-07-29T08:41:15.633Z,31.59
2022-07-29T08:43:43.855Z,31.26
2022-07-29T08:46:12.350Z,31.34
2022-07-29T08:48:42.205Z,30.86
2022-07-29T08:51:15.199Z,31.03
2022-07-29T08:53:45.619Z,31.59
2022-07-29T08:56:20.520Z,31.40
2022-07-29T08:58:52.382Z,31.24
2022-07-29T09:01:36.463Z,31.29
2022-07-29T09:04:13.133Z,31.79
2022-07-29T09:06:45.952Z,32.57
2022-07-29T09:09:14.916Z,31.53
2022-07-29T09:11:44.326Z,31.10
2022-07-29T09:14:14.660Z,30.68
2022-07-29T09:16:53.152Z,29.46
2022-07-29T09:19:26.602Z,29.78
2022-07-29T09:21:58.833Z,29.19
2022-07-29T09:24:41.871Z,28.86
2022-07-29T09:27:22.153Z,27.31
2022-07-29T09:30:13.741Z,27.09
2022-07-29T09:33:03.886Z,27.18
2022-07-29T09:35:32.774Z,27.70
2022-07-29T09:38:11.784Z,28.23
2022-07-29T09:40:40.840Z,28.92
2022-07-29T09:43:14.790Z,29.53
2022-07-29T09:45:42.744Z,30.58
2022-07-29T09:48:18.735Z,31.34
2022-07-29T09:50:50.675Z,31.49
2022-07-29T09:53:36.542Z,31.76
2022-07-29T09:56:06.079Z,32.57
2022-07-29T09:58:35.074Z,33.42
2022-07-29T10:01:04.379Z,34.09
2022-07-29T10:03:32.720Z,34.68
2022-07-29T10:06:12.152Z,35.37
2022-07-29T10:08:42.574Z,35.45
2022-07-29T10:11:18.689Z,35.05
2022-07-29T10:13:49.498Z,34.94
2022-07-29T10:16:18.982Z,34.67
2022-07-29T10:18:47.988Z,35.09
2022-07-29T10:21:35.275Z,35.38
2022-07-29T10:24:06.086Z,35.30
2022-07-29T10:26:34.863Z,35.42
2022-07-29T10:29:03.637Z,35.66
2022-07-29T10:32:04.366Z,35.90
2022-07-29T10:35:03.246Z,36.35
2022-07-29T10:37:59.249Z,37.18
2022-07-29T10:41:19.393Z,37.63
2022-07-29T10:43:51.190Z,38.29
2022-07-29T10:46:20.849Z,38.80
2022-07-29T10:49:11.437Z,39.48
2022-07-29T10:52:07.531Z,40.14
2022-07-29T10:54:42.406Z,41.11
2022-07-29T10:57:14.953Z,41.41
2022-07-29T10:59:46.437Z,42.12
2022-07-29T11:02:42.365Z,42.13
2022-07-29T11:05:20.616Z,42.86
2022-07-29T11:08:20.368Z,42.82
2022-07-29T11:10:50.569Z,42.96
2022-07-29T11:13:44.206Z,43.09
2022-07-29T11:16:12.468Z,43.62
2022-07-29T11:19:13.358Z,43.37
2022-07-29T11:21:54.021Z,43.96
2022-07-29T11:24:29.599Z,43.69
2022-07-29T11:27:19.525Z,43.91
2022-07-29T11:29:57.284Z,44.05
2022-07-29T11:32:38.286Z,44.59
2022-07-29T11:35:38.545Z,46.99
2022-07-29T11:38:23.437Z,48.58
2022-07-29T11:41:27.370Z,48.92
2022-07-29T11:44:01.455Z,49.37
2022-07-29T11:46:51.008Z,49.64
2022-07-29T11:49:32.434Z,50.83
2022-07-29T11:52:04.981Z,52.28
2022-07-29T11:54:38.938Z,52.88
2022-07-29T11:57:35.965Z,52.95
2022-07-29T12:00:12.627Z,52.85
2022-07-29T12:02:45.179Z,53.50
2022-07-29T12:05:36.012Z,54.76
2022-07-29T12:08:07.541Z,56.28
2022-07-29T12:10:42.367Z,56.91
2022-07-29T12:13:12.518Z,56.58
2022-07-29T12:15:46.820Z,56.06
2022-07-29T12:18:19.094Z,55.94
2022-07-29T12:20:49.034Z,56.55
2022-07-29T12:23:18.909Z,57.13
2022-07-29T12:25:49.847Z,58.02
2022-07-29T12:28:26.861Z,58.40
2022-07-29T12:30:55.999Z,58.80
2022-07-29T12:33:24.190Z,59.17
2022-07-29T12:36:06.909Z,59.66
2022-07-29T12:38:37.008Z,59.64
2022-07-29T12:41:05.428Z,58.74
2022-07-29T12:43:33.876Z,58.78
2022-07-29T12:46:14.595Z,58.93
2022-07-29T12:48:44.695Z,57.56
2022-07-29T12:51:15.529Z,57.74
2022-07-29T12:54:04.438Z,58.62
2022-07-29T12:56:42.637Z,59.39
2022-07-29T12:59:21.643Z,60.97
2022-07-29T13:01:52.801Z,61.93
2022-07-29T13:04:29.642Z,62.49
2022-07-29T13:07:01.362Z,61.41
2022-07-29T13:09:49.604Z,60.86
2022-07-29T13:12:17.825Z,59.83
2022-07-29T13:14:51.260Z,59.45
2022-07-29T13:17:24.176Z,58.74
2022-07-29T13:20:10.414Z,58.13
2022-07-29T13:22:38.562Z,57.91
2022-07-29T13:25:07.761Z,58.27
2022-07-29T13:27:38.238Z,58.52
2022-07-29T13:30:10.820Z,58.78
2022-07-29T13:32:39.531Z,58.61
2022-07-29T13:35:09.497Z,58.41
2022-07-29T13:37:39.626Z,58.59
2022-07-29T13:40:10.498Z,57.92
2022-07-29T13:42:38.862Z,57.69
2022-07-29T13:45:08.093Z,57.57
2022-07-29T13:47:36.460Z,57.44
2022-07-29T13:50:06.302Z,57.00
2022-07-29T13:52:35.627Z,57.13
2022-07-29T13:55:05.114Z,57.15
2022-07-29T13:57:33.350Z,56.92
2022-07-29T14:00:01.778Z,56.86
2022-07-29T14:02:36.631Z,56.88
2022-07-29T14:05:08.519Z,56.76
2022-07-29T14:07:39.777Z,57.05
2022-07-29T14:10:08.734Z,57.06
2022-07-29T14:12:37.164Z,57.06
2022-07-29T14:15:05.968Z,57.92
2022-07-29T14:17:34.267Z,59.26
2022-07-29T14:20:02.494Z,60.21
2022-07-29T14:22:31.119Z,61.56
2022-07-29T14:24:59.170Z,61.77
2022-07-29T14:27:38.390Z,63.99
2022-07-29T14:30:07.570Z,63.28
2022-07-29T14:32:35.791Z,62.97
2022-07-29T14:35:04.970Z,64.44
2022-07-29T14:37:39.822Z,65.48
2022-07-29T14:40:10.480Z,66.44
2022-07-29T14:42:39.380Z,65.57
2022-07-29T14:45:09.099Z,65.31
2022-07-29T14:47:38.475Z,65.95
2022-07-29T14:50:08.149Z,66.44
2022-07-29T14:52:36.413Z,67.69
2022-07-29T14:55:05.483Z,67.70
2022-07-29T14:57:44.927Z,66.76
2022-07-29T15:00:14.289Z,65.86
2022-07-29T15:03:00.851Z,65.27
2022-07-29T15:05:32.310Z,65.65
2022-07-29T15:08:01.082Z,66.97
2022-07-29T15:10:29.854Z,66.68
2022-07-29T15:12:58.316Z,66.14
2022-07-29T15:15:27.064Z,65.59
2022-07-29T15:17:55.598Z,66.78
2022-07-29T15:20:26.358Z,66.08
2022-07-29T15:22:56.550Z,65.77
2022-07-29T15:25:26.423Z,65.22
2022-07-29T15:28:01.130Z,64.74
2022-07-29T15:30:33.431Z,63.99
2022-07-29T15:33:04.313Z,64.39
2022-07-29T15:35:32.989Z,64.07
2022-07-29T15:38:01.407Z,63.58
2022-07-29T15:40:30.086Z,62.85
2022-07-29T15:43:01.861Z,62.40
2022-07-29T15:45:32.601Z,59.55
2022-07-29T15:48:01.780Z,59.06
2022-07-29T15:50:29.914Z,58.69
2022-07-29T15:52:58.154Z,58.95
2022-07-29T15:55:26.476Z,58.43
2022-07-29T15:57:59.988Z,57.65
2022-07-29T16:00:28.764Z,57.87
2022-07-29T16:02:57.555Z,57.44
2022-07-29T16:05:25.797Z,56.99
2022-07-29T16:07:53.979Z,56.08
2022-07-29T16:10:22.170Z,55.66
2022-07-29T16:12:50.291Z,55.86
2022-07-29T16:15:18.520Z,55.83
2022-07-29T16:17:46.951Z,55.39
2022-07-29T16:20:15.155Z,55.10
2022-07-29T16:22:43.796Z,55.09
2022-07-29T16:25:12.153Z,55.13
2022-07-29T16:27:40.288Z,55.39
2022-07-29T16:30:10.013Z,55.53
2022-07-29T16:32:38.388Z,56.07
2022-07-29T16:35:07.880Z,58.83
2022-07-29T16:37:37.275Z,59.41
2022-07-29T16:40:07.400Z,59.30
2022-07-29T16:42:48.030Z,58.94
2022-07-29T16:45:18.056Z,59.57
2022-07-29T16:47:49.809Z,59.87
2022-07-29T16:50:18.133Z,60.36
2022-07-29T16:52:46.389Z,60.71
2022-07-29T16:55:14.614Z,61.33
2022-07-29T16:57:43.973Z,61.87
2022-07-29T17:00:13.573Z,62.65
2022-07-29T17:02:42.366Z,62.77
2022-07-29T17:05:12.451Z,62.84
2022-07-29T17:07:41.009Z,63.23
2022-07-29T17:10:10.823Z,63.18
2022-07-29T17:12:40.947Z,62.63
2022-07-29T17:15:11.755Z,62.23
2022-07-29T17:17:56.387Z,62.02
2022-07-29T17:20:27.137Z,61.80
2022-07-29T17:22:55.709Z,61.89
2022-07-29T17:25:24.767Z,62.02
2022-07-29T17:27:57.552Z,62.10
2022-07-29T17:30:29.539Z,62.83
2022-07-29T17:32:57.811Z,62.67
2022-07-29T17:35:44.460Z,63.35
2022-07-29T17:38:12.610Z,63.51
2022-07-29T17:40:40.754Z,63.62
2022-07-29T17:43:09.580Z,63.81
2022-07-29T17:45:49.394Z,63.89
2022-07-29T17:48:19.471Z,63.83
2022-07-29T17:50:48.947Z,63.82
2022-07-29T17:53:17.270Z,64.17
2022-07-29T17:55:46.293Z,64.62
2022-07-29T17:58:14.974Z,65.41
2022-07-29T18:00:43.544Z,65.71
2022-07-29T18:03:11.879Z,66.01
2022-07-29T18:05:40.298Z,66.46
2022-07-29T18:08:08.641Z,66.32
2022-07-29T18:10:36.929Z,66.04
2022-07-29T18:13:05.175Z,65.77
2022-07-29T18:15:33.701Z,65.65
2022-07-29T18:18:02.018Z,65.71
2022-07-29T18:20:31.081Z,65.83
2022-07-29T18:22:59.444Z,65.31
2022-07-29T18:25:29.087Z,65.00
2022-07-29T18:28:00.541Z,65.05
2022-07-29T18:30:30.915Z,64.95
2022-07-29T18:33:20.293Z,65.20
2022-07-29T18:35:48.810Z,64.85
2022-07-29T18:38:17.348Z,64.94
2022-07-29T18:40:46.098Z,65.08
2022-07-29T18:43:14.763Z,64.99
2022-07-29T18:45:43.054Z,65.44
2022-07-29T18:48:12.688Z,65.82
2022-07-29T18:50:42.207Z,65.74
2022-07-29T18:53:10.584Z,65.75
2022-07-29T18:55:38.932Z,65.99
2022-07-29T18:58:07.295Z,65.88
2022-07-29T19:00:35.515Z,65.83
2022-07-29T19:03:04.097Z,66.23
2022-07-29T19:05:32.596Z,66.20
2022-07-29T19:08:00.743Z,66.15
2022-07-29T19:10:29.228Z,66.81
2022-07-29T19:12:58.006Z,67.35
2022-07-29T19:15:26.412Z,67.20
2022-07-29T19:17:59.013Z,67.65
2022-07-29T19:20:29.603Z,67.35
2022-07-29T19:22:58.611Z,67.84
2022-07-29T19:25:26.822Z,68.32
2022-07-29T19:27:55.118Z,69.17
2022-07-29T19:30:23.340Z,69.35
2022-07-29T19:32:51.779Z,69.69
2022-07-29T19:35:31.379Z,69.95
2022-07-29T19:38:01.794Z,69.94
2022-07-29T19:40:30.476Z,69.93
2022-07-29T19:42:59.317Z,69.50
2022-07-29T19:45:27.624Z,69.15
2022-07-29T19:48:01.032Z,68.84
2022-07-29T19:50:30.432Z,68.63
2022-07-29T19:53:00.201Z,68.49
2022-07-29T19:55:28.578Z,68.18
2022-07-29T19:57:59.041Z,68.22
2022-07-29T20:00:28.509Z,68.06
2022-07-29T20:02:58.477Z,67.76
2022-07-29T20:05:28.469Z,67.94
2022-07-29T20:07:57.584Z,68.18
2022-07-29T20:10:25.947Z,67.87
2022-07-29T20:12:55.239Z,67.97
2022-07-29T20:15:24.031Z,68.16
2022-07-29T20:17:56.975Z,68.45
2022-07-29T20:20:25.959Z,68.85
2022-07-29T20:22:54.431Z,68.90
2022-07-29T20:25:23.188Z,69.40
2022-07-29T20:27:52.639Z,69.74
2022-07-29T20:30:22.305Z,69.67
2022-07-29T20:32:51.048Z,69.51
2022-07-29T20:35:20.187Z,69.85
2022-07-29T20:37:52.556Z,69.88
2022-07-29T20:40:26.001Z,70.14
2022-07-29T20:42:55.681Z,70.12
2022-07-29T20:45:24.582Z,69.96
2022-07-29T20:47:53.158Z,70.60
2022-07-29T20:50:23.692Z,71.19
2022-07-29T20:52:53.262Z,71.39
2022-07-29T20:55:21.789Z,71.66
2022-07-29T20:57:49.967Z,71.82
2022-07-29T21:00:18.556Z,71.74
2022-07-29T21:02:47.482Z,72.09
2022-07-29T21:05:16.303Z,71.75
2022-07-29T21:07:44.456Z,71.68
2022-07-29T21:10:14.364Z,71.49
2022-07-29T21:12:42.821Z,71.48
2022-07-29T21:15:13.586Z,71.47
2022-07-29T21:17:47.333Z,71.88
2022-07-29T21:20:17.513Z,72.14
2022-07-29T21:22:45.791Z,72.01
2022-07-29T21:25:14.012Z,72.05
2022-07-29T21:28:01.175Z,72.37
2022-07-29T21:30:29.281Z,71.92
2022-07-29T21:32:57.561Z,72.02
2022-07-29T21:35:35.809Z,72.24
2022-07-29T21:38:16.443Z,72.79
2022-07-29T21:40:46.518Z,73.09
2022-07-29T21:43:15.733Z,73.72
2022-07-29T21:45:44.362Z,73.89
2022-07-29T21:48:12.580Z,73.85
2022-07-29T21:50:40.696Z,74.38
2022-07-29T21:53:11.129Z,75.04
2022-07-29T21:55:42.074Z,75.04
2022-07-29T21:58:11.299Z,75.38
2022-07-29T22:00:39.528Z,75.26
2022-07-29T22:03:07.970Z,75.50
2022-07-29T22:05:36.629Z,75.42
2022-07-29T22:08:05.394Z,75.43
2022-07-29T22:10:33.709Z,75.08
2022-07-29T22:13:02.279Z,75.58
2022-07-29T22:15:31.279Z,76.02
2022-07-29T22:17:59.932Z,76.21
2022-07-29T22:20:28.302Z,75.97
2022-07-29T22:22:56.435Z,76.00
2022-07-29T22:25:24.629Z,75.97
2022-07-29T22:27:52.738Z,75.56
2022-07-29T22:30:20.914Z,76.03
2022-07-29T22:32:49.933Z,75.95
2022-07-29T22:35:18.078Z,75.55
2022-07-29T22:37:46.321Z,75.26
2022-07-29T22:40:14.537Z,75.19
2022-07-29T22:42:42.848Z,75.35
2022-07-29T22:45:11.271Z,75.19
2022-07-29T22:47:46.196Z,75.36
2022-07-29T22:50:17.553Z,75.30
2022-07-29T22:52:46.400Z,75.18
2022-07-29T22:55:15.384Z,75.12
2022-07-29T22:57:43.640Z,74.80
2022-07-29T23:00:12.602Z,74.90
2022-07-29T23:02:41.681Z,74.88
2022-07-29T23:05:10.761Z,75.21
2022-07-29T23:07:38.954Z,75.37
2022-07-29T23:10:08.041Z,75.69
2022-07-29T23:12:36.667Z,75.71
2022-07-29T23:15:06.257Z,76.01
2022-07-29T23:17:36.472Z,76.22
2022-07-29T23:20:09.815Z,75.87
2022-07-29T23:22:38.217Z,76.16
2022-07-29T23:25:07.003Z,76.07
2022-07-29T23:27:35.391Z,76.50
2022-07-29T23:30:04.873Z,76.40
2022-07-29T23:32:33.162Z,76.61
2022-07-29T23:35:01.407Z,76.68
2022-07-29T23:37:29.514Z,76.46
2022-07-29T23:39:57.596Z,76.34
2022-07-29T23:42:25.811Z,76.41
2022-07-29T23:44:53.920Z,76.65
2022-07-29T23:47:22.122Z,77.13
2022-07-29T23:49:50.403Z,77.21
2022-07-29T23:52:18.759Z,77.58
2022-07-29T23:54:47.062Z,77.80
2022-07-29T23:57:15.230Z,77.75
2022-07-29T23:59:43.414Z,77.29
